createdAt,value
2023-01-12T00:02:20.094Z,4.33
2023-01-12T00:04:47.189Z,4.43
2023-01-12T00:07:16.016Z,4.40
2023-01-12T00:09:43.273Z,3.90
2023-01-12T00:12:12.125Z,4.73
2023-01-12T00:14:40.110Z,4.57
2023-01-12T00:17:11.867Z,4.03
2023-01-12T00:19:40.052Z,5.00
2023-01-12T00:22:07.147Z,2.73
2023-01-12T00:24:44.609Z,4.60
2023-01-12T00:27:16.711Z,4.23
2023-01-12T00:29:44.247Z,4.90
2023-01-12T00:32:18.967Z,3.77
2023-01-12T00:34:46.139Z,4.17
2023-01-12T00:37:13.496Z,4.60
2023-01-12T00:39:45.520Z,5.20
2023-01-12T00:42:32.349Z,5.27
2023-01-12T00:45:17.961Z,5.13
2023-01-12T00:47:45.010Z,4.47
2023-01-12T00:50:11.993Z,5.90
2023-01-12T00:52:39.177Z,4.80
2023-01-12T00:55:07.102Z,5.00
2023-01-12T00:57:34.163Z,4.27
2023-01-12T01:00:01.170Z,4.70
2023-01-12T01:02:28.990Z,3.60
2023-01-12T01:04:56.624Z,4.23
2023-01-12T01:07:24.472Z,3.50
2023-01-12T01:09:52.408Z,3.00
2023-01-12T01:12:19.476Z,3.83
2023-01-12T01:14:48.489Z,3.50
2023-01-12T01:17:15.847Z,3.30
2023-01-12T01:19:43.568Z,3.67
2023-01-12T01:22:13.517Z,3.33
2023-01-12T01:24:41.653Z,3.50
2023-01-12T01:27:08.704Z,2.70
2023-01-12T01:29:35.811Z,2.90
2023-01-12T01:32:02.900Z,2.67
2023-01-12T01:34:30.030Z,3.30
2023-01-12T01:36:57.041Z,2.43
2023-01-12T01:39:24.031Z,2.60
2023-01-12T01:41:51.742Z,3.57
2023-01-12T01:44:30.909Z,2.80
2023-01-12T01:47:27.075Z,2.40
2023-01-12T01:49:59.426Z,2.43
2023-01-12T01:52:34.596Z,2.40
2023-01-12T01:55:17.735Z,1.93
2023-01-12T01:58:09.665Z,2.00
2023-01-12T02:00:39.047Z,1.50
2023-01-12T02:03:08.491Z,1.53
2023-01-12T02:05:39.604Z,1.20
2023-01-12T02:09:01.648Z,1.40
2023-01-12T02:11:48.634Z,1.17
2023-01-12T02:14:33.995Z,1.23
2023-01-12T02:17:46.792Z,1.73
2023-01-12T02:21:06.220Z,1.33
2023-01-12T02:24:16.215Z,1.73
2023-01-12T02:27:29.987Z,1.27
2023-01-12T02:30:50.589Z,0.60
2023-01-12T02:34:01.127Z,1.20
2023-01-12T02:36:58.679Z,1.30
2023-01-12T02:39:59.820Z,1.43
2023-01-12T02:42:54.369Z,2.13
2023-01-12T02:45:47.750Z,1.40
2023-01-12T02:48:47.028Z,1.67
2023-01-12T02:51:37.492Z,1.50
2023-01-12T02:54:13.278Z,1.67
2023-01-12T02:56:46.310Z,1.43
2023-01-12T02:59:29.021Z,2.30
2023-01-12T03:02:22.941Z,0.87
2023-01-12T03:04:50.462Z,1.90
2023-01-12T03:08:01.518Z,1.50
2023-01-12T03:10:48.465Z,1.53
2023-01-12T03:13:17.954Z,1.70
2023-01-12T03:15:57.511Z,1.37
2023-01-12T03:19:02.249Z,1.73
2023-01-12T03:21:37.278Z,0.93
2023-01-12T03:24:17.112Z,1.37
2023-01-12T03:26:54.953Z,1.50
2023-01-12T03:29:50.264Z,2.10
2023-01-12T03:32:20.056Z,1.50
2023-01-12T03:34:47.544Z,1.07
2023-01-12T03:37:38.408Z,1.50
2023-01-12T03:40:22.133Z,1.43
2023-01-12T03:43:15.921Z,1.03
2023-01-12T03:45:58.718Z,1.20
2023-01-12T03:49:00.764Z,0.93
2023-01-12T03:51:39.298Z,1.40
2023-01-12T03:54:10.177Z,1.00
2023-01-12T03:56:39.085Z,2.03
2023-01-12T03:59:06.603Z,1.30
2023-01-12T04:01:33.717Z,1.40
2023-01-12T04:04:01.191Z,0.83
2023-01-12T04:06:28.181Z,1.40
2023-01-12T04:08:55.361Z,0.90
2023-01-12T04:11:41.076Z,1.10
2023-01-12T04:14:08.253Z,1.37
2023-01-12T04:16:35.298Z,1.47
2023-01-12T04:19:02.347Z,1.50
2023-01-12T04:21:47.981Z,1.37
2023-01-12T04:24:15.191Z,1.50
2023-01-12T04:26:42.234Z,1.13
2023-01-12T04:29:09.240Z,1.70
2023-01-12T04:31:36.306Z,1.13
2023-01-12T04:34:03.469Z,1.10
2023-01-12T04:36:33.649Z,1.00
2023-01-12T04:39:00.636Z,1.50
2023-01-12T04:41:27.732Z,1.40
2023-01-12T04:43:55.226Z,1.30
2023-01-12T04:46:22.218Z,1.50
2023-01-12T04:48:49.291Z,1.20
2023-01-12T04:51:16.352Z,0.70
2023-01-12T04:53:43.439Z,1.50
2023-01-12T04:56:10.532Z,1.00
2023-01-12T04:58:37.677Z,1.30
2023-01-12T05:01:15.607Z,1.30
2023-01-12T05:03:43.558Z,1.30
2023-01-12T05:06:11.516Z,1.47
2023-01-12T05:08:57.827Z,1.00
2023-01-12T05:11:28.905Z,1.53
2023-01-12T05:13:57.260Z,1.30
2023-01-12T05:16:27.473Z,1.23
2023-01-12T05:18:54.692Z,1.43
2023-01-12T05:21:24.183Z,1.23
2023-01-12T05:23:53.353Z,1.70
2023-01-12T05:26:20.662Z,1.33
2023-01-12T05:28:51.653Z,0.93
2023-01-12T05:31:22.175Z,1.40
2023-01-12T05:33:49.368Z,1.37
2023-01-12T05:36:18.399Z,1.47
2023-01-12T05:38:45.470Z,1.20
2023-01-12T05:41:18.121Z,1.67
2023-01-12T05:43:54.866Z,1.30
2023-01-12T05:46:30.609Z,1.20
2023-01-12T05:48:58.836Z,1.73
2023-01-12T05:51:30.807Z,1.10
2023-01-12T05:54:00.958Z,1.07
2023-01-12T05:56:28.618Z,0.80
2023-01-12T05:59:00.274Z,1.37
2023-01-12T06:01:29.484Z,1.00
2023-01-12T06:04:04.303Z,1.00
2023-01-12T06:06:32.239Z,1.10
2023-01-12T06:09:00.991Z,0.93
2023-01-12T06:11:46.757Z,0.80
2023-01-12T06:14:14.518Z,1.13
2023-01-12T06:16:43.644Z,1.10
2023-01-12T06:19:14.375Z,1.47
2023-01-12T06:21:41.968Z,1.20
2023-01-12T06:24:09.540Z,0.87
2023-01-12T06:26:36.650Z,1.27
2023-01-12T06:29:06.756Z,1.50
2023-01-12T06:31:34.233Z,1.20
2023-01-12T06:34:01.496Z,1.00
2023-01-12T06:36:28.624Z,1.23
2023-01-12T06:38:55.646Z,1.00
2023-01-12T06:41:41.201Z,1.40
2023-01-12T06:44:08.215Z,1.23
2023-01-12T06:46:35.302Z,1.13
2023-01-12T06:49:05.543Z,0.97
2023-01-12T06:51:32.798Z,1.13
2023-01-12T06:54:01.379Z,1.50
2023-01-12T06:56:28.712Z,1.43
2023-01-12T06:58:55.801Z,1.30
2023-01-12T07:01:26.962Z,1.00
2023-01-12T07:03:54.293Z,1.00
2023-01-12T07:06:24.185Z,1.37
2023-01-12T07:08:51.236Z,1.37
2023-01-12T07:11:18.370Z,1.13
2023-01-12T07:13:45.490Z,1.43
2023-01-12T07:16:12.940Z,1.30
2023-01-12T07:18:40.058Z,1.37
2023-01-12T07:21:13.953Z,1.40
2023-01-12T07:23:44.148Z,0.67
2023-01-12T07:26:12.177Z,1.10
2023-01-12T07:28:40.365Z,1.13
2023-01-12T07:31:07.810Z,1.27
2023-01-12T07:33:36.730Z,1.67
2023-01-12T07:36:04.888Z,1.50
2023-01-12T07:38:32.780Z,1.10
2023-01-12T07:41:05.137Z,1.07
2023-01-12T07:43:35.952Z,1.40
2023-01-12T07:46:03.160Z,1.10
2023-01-12T07:48:30.755Z,1.10
2023-01-12T07:50:59.465Z,0.90
2023-01-12T07:53:26.519Z,1.40
2023-01-12T07:55:53.634Z,1.23
2023-01-12T07:58:21.180Z,1.47
2023-01-12T08:00:48.212Z,1.60
2023-01-12T08:03:15.380Z,1.37
2023-01-12T08:05:42.818Z,1.50
2023-01-12T08:08:10.431Z,1.57
2023-01-12T08:10:37.854Z,1.30
2023-01-12T08:13:04.910Z,1.50
2023-01-12T08:15:40.228Z,1.10
2023-01-12T08:18:36.852Z,1.10
2023-01-12T08:21:11.680Z,1.60
2023-01-12T08:23:56.280Z,1.10
2023-01-12T08:26:31.960Z,1.40
2023-01-12T08:29:34.870Z,1.10
2023-01-12T08:34:42.084Z,0.90
2023-01-12T08:37:16.472Z,1.47
2023-01-12T08:39:43.745Z,1.40
2023-01-12T08:42:11.277Z,0.80
2023-01-12T08:44:38.718Z,1.00
2023-01-12T08:47:19.162Z,1.30
2023-01-12T08:49:48.298Z,1.43
2023-01-12T08:52:16.626Z,0.70
2023-01-12T08:54:44.164Z,1.07
2023-01-12T08:57:11.451Z,0.77
2023-01-12T08:59:38.699Z,1.43
2023-01-12T09:02:06.005Z,0.90
2023-01-12T09:04:39.577Z,1.10
2023-01-12T09:07:13.530Z,0.93
2023-01-12T09:09:40.655Z,1.40
2023-01-12T09:12:07.875Z,0.97
2023-01-12T09:14:39.162Z,1.10
2023-01-12T09:17:07.667Z,1.00
2023-01-12T09:19:38.031Z,1.10
2023-01-12T09:22:05.288Z,1.23
2023-01-12T09:24:32.325Z,0.80
2023-01-12T09:27:00.179Z,0.63
2023-01-12T09:29:27.641Z,0.97
2023-01-12T09:31:56.297Z,0.93
2023-01-12T09:34:23.431Z,0.77
2023-01-12T09:36:53.538Z,0.90
2023-01-12T09:39:27.640Z,0.60
2023-01-12T09:42:16.222Z,1.10
2023-01-12T09:45:09.075Z,0.90
2023-01-12T09:47:40.609Z,1.10
2023-01-12T09:50:32.686Z,0.87
2023-01-12T09:53:27.614Z,1.30
2023-01-12T09:56:43.663Z,1.00
2023-01-12T09:59:51.591Z,1.10
2023-01-12T10:02:18.859Z,1.03
2023-01-12T10:04:49.684Z,0.77
2023-01-12T10:07:18.489Z,0.83
2023-01-12T10:09:46.280Z,0.90
2023-01-12T10:12:31.161Z,0.70
2023-01-12T10:15:31.054Z,0.93
2023-01-12T10:18:33.256Z,0.97
2023-01-12T10:21:00.952Z,0.90
2023-01-12T10:23:28.514Z,1.73
2023-01-12T10:26:24.314Z,1.20
2023-01-12T10:28:55.514Z,0.80
2023-01-12T10:31:27.012Z,0.90
2023-01-12T10:34:10.133Z,0.80
2023-01-12T10:36:49.129Z,1.30
2023-01-12T10:39:33.838Z,1.97
2023-01-12T10:42:43.123Z,0.77
2023-01-12T10:45:26.988Z,0.63
2023-01-12T10:47:56.235Z,1.20
2023-01-12T10:50:33.038Z,1.57
2023-01-12T10:53:17.468Z,1.00
2023-01-12T10:55:45.392Z,1.20
2023-01-12T10:58:29.425Z,1.13
2023-01-12T11:00:57.556Z,1.00
2023-01-12T11:03:42.051Z,0.80
2023-01-12T11:06:29.194Z,0.97
2023-01-12T11:09:17.493Z,0.60
2023-01-12T11:11:47.474Z,1.47
2023-01-12T11:14:37.152Z,1.13
2023-01-12T11:17:26.639Z,1.40
2023-01-12T11:19:57.479Z,1.00
2023-01-12T11:22:37.295Z,1.13
2023-01-12T11:25:26.612Z,0.70
2023-01-12T11:28:10.712Z,1.13
2023-01-12T11:30:51.769Z,1.17
2023-01-12T11:33:47.421Z,0.90
2023-01-12T11:36:31.109Z,3.97
2023-01-12T11:39:12.627Z,1.90
2023-01-12T11:42:14.151Z,1.10
2023-01-12T11:45:14.657Z,1.00
2023-01-12T11:48:23.092Z,0.80
2023-01-12T11:50:53.405Z,1.70
2023-01-12T11:53:24.135Z,0.70
2023-01-12T11:56:35.987Z,1.20
2023-01-12T11:59:21.014Z,0.90
2023-01-12T12:02:39.319Z,0.90
2023-01-12T12:05:49.401Z,0.87
2023-01-12T12:09:10.493Z,0.90
2023-01-12T12:12:02.115Z,0.40
2023-01-12T12:14:57.302Z,0.50
2023-01-12T12:18:09.634Z,0.90
2023-01-12T12:21:30.058Z,0.80
2023-01-12T12:24:44.723Z,0.93
2023-01-12T12:27:48.875Z,0.80
2023-01-12T12:30:40.459Z,0.50
2023-01-12T12:33:57.061Z,0.37
2023-01-12T12:36:49.505Z,0.70
2023-01-12T12:40:02.347Z,0.40
2023-01-12T12:43:10.053Z,0.57
2023-01-12T12:46:12.577Z,0.40
2023-01-12T12:49:04.871Z,0.47
2023-01-12T12:51:35.389Z,0.47
2023-01-12T12:54:10.783Z,0.30
2023-01-12T12:56:38.825Z,0.30
2023-01-12T12:59:06.263Z,0.30
2023-01-12T13:01:35.468Z,0.50
2023-01-12T13:04:08.362Z,0.20
2023-01-12T13:06:49.502Z,0.50
2023-01-12T13:09:16.507Z,0.10
2023-01-12T13:12:19.009Z,0.67
2023-01-12T13:15:19.696Z,0.27
2023-01-12T13:17:49.576Z,3.13
2023-01-12T13:20:25.711Z,1.87
2023-01-12T13:22:53.765Z,0.40
2023-01-12T13:25:24.201Z,2.20
2023-01-12T13:28:00.363Z,1.90
2023-01-12T13:30:29.987Z,1.23
2023-01-12T13:33:24.154Z,1.57
2023-01-12T13:35:50.968Z,1.60
2023-01-12T13:38:45.223Z,0.80
2023-01-12T13:41:38.472Z,0.50
2023-01-12T13:44:14.875Z,0.30
2023-01-12T13:46:51.322Z,0.20
2023-01-12T13:49:57.469Z,0.30
2023-01-12T13:52:37.154Z,0.10
2023-01-12T13:55:22.904Z,0.30
2023-01-12T13:58:16.862Z,0.20
2023-01-12T14:01:03.536Z,0.23
2023-01-12T14:04:20.385Z,3.07
2023-01-12T14:07:09.161Z,0.20
2023-01-12T14:10:25.721Z,0.80
2023-01-12T14:13:52.215Z,0.40
2023-01-12T14:16:37.732Z,0.30
2023-01-12T14:19:28.804Z,0.10
2023-01-12T14:22:04.837Z,0.30
2023-01-12T14:24:43.377Z,0.30
2023-01-12T14:27:27.355Z,0.30
2023-01-12T14:29:55.028Z,0.20
2023-01-12T14:32:33.921Z,0.40
2023-01-12T14:35:01.201Z,0.20
2023-01-12T14:37:40.613Z,0.20
2023-01-12T14:40:31.467Z,1.27
2023-01-12T14:43:19.700Z,0.20
2023-01-12T14:46:21.145Z,0.10
2023-01-12T14:49:17.386Z,0.30
2023-01-12T14:52:15.790Z,0.20
2023-01-12T14:54:47.129Z,1.67
2023-01-12T14:57:36.501Z,1.00
2023-01-12T15:00:05.103Z,0.33
2023-01-12T15:02:41.993Z,1.37
2023-01-12T15:05:26.863Z,0.20
2023-01-12T15:08:08.113Z,0.40
2023-01-12T15:10:42.321Z,0.30
2023-01-12T15:13:35.321Z,0.30
2023-01-12T15:16:25.240Z,0.20
2023-01-12T15:19:11.019Z,0.20
2023-01-12T15:21:58.626Z,0.20
2023-01-12T15:24:52.850Z,0.20
2023-01-12T15:27:24.370Z,0.33
2023-01-12T15:29:51.917Z,0.20
2023-01-12T15:32:46.383Z,0.27
2023-01-12T15:35:23.624Z,0.30
2023-01-12T15:37:55.176Z,0.40
2023-01-12T15:40:24.746Z,0.33
2023-01-12T15:42:56.157Z,0.10
2023-01-12T15:45:40.757Z,0.20
2023-01-12T15:48:10.874Z,0.20
2023-01-12T15:50:42.945Z,0.30
2023-01-12T15:53:24.153Z,0.13
2023-01-12T15:55:52.676Z,0.20
2023-01-12T15:58:20.063Z,0.30
2023-01-12T16:00:55.524Z,0.23
2023-01-12T16:03:54.507Z,0.10
2023-01-12T16:06:09.672Z,0.40
2023-01-12T16:08:36.973Z,0.13
2023-01-12T16:11:14.242Z,0.20
2023-01-12T16:13:41.947Z,0.20
2023-01-12T16:16:16.815Z,0.20
2023-01-12T16:18:44.642Z,0.10
2023-01-12T16:21:22.597Z,0.10
2023-01-12T16:23:50.244Z,0.20
2023-01-12T16:26:28.263Z,0.10
2023-01-12T16:28:57.678Z,0.20
2023-01-12T16:31:25.504Z,0.40
2023-01-12T16:33:55.775Z,0.13
2023-01-12T16:36:28.556Z,0.10
2023-01-12T16:38:58.622Z,0.20
2023-01-12T16:41:25.879Z,0.23
2023-01-12T16:43:54.500Z,0.10
2023-01-12T16:46:21.601Z,0.10
2023-01-12T16:48:48.694Z,0.70
2023-01-12T16:51:18.661Z,0.30
2023-01-12T16:53:47.292Z,0.10
2023-01-12T16:56:16.416Z,0.20
2023-01-12T16:58:48.189Z,0.27
2023-01-12T17:01:24.679Z,0.30
2023-01-12T17:03:57.483Z,0.30
2023-01-12T17:06:27.660Z,0.30
2023-01-12T17:08:55.816Z,0.30
2023-01-12T17:11:24.864Z,0.30
2023-01-12T17:13:55.930Z,0.10
2023-01-12T17:16:27.502Z,0.20
2023-01-12T17:18:55.029Z,0.10
2023-01-12T17:21:22.702Z,0.20
2023-01-12T17:23:50.042Z,0.20
2023-01-12T17:26:21.418Z,0.37
2023-01-12T17:28:48.537Z,0.20
2023-01-12T17:31:21.020Z,0.20
2023-01-12T17:33:48.443Z,2.90
2023-01-12T17:36:17.031Z,1.30
2023-01-12T17:38:44.363Z,0.50
2023-01-12T17:41:36.984Z,0.40
2023-01-12T17:44:07.000Z,1.70
2023-01-12T17:46:34.911Z,1.30
2023-01-12T17:49:07.068Z,0.67
2023-01-12T17:51:43.050Z,0.20
2023-01-12T17:54:15.835Z,0.10
2023-01-12T17:56:46.221Z,0.20
2023-01-12T17:59:20.874Z,0.30
2023-01-12T18:01:52.063Z,0.20
2023-01-12T18:04:19.539Z,0.43
2023-01-12T18:06:46.586Z,0.20
2023-01-12T18:09:14.284Z,0.30
2023-01-12T18:11:47.915Z,0.60
2023-01-12T18:14:15.250Z,0.40
2023-01-12T18:16:42.579Z,0.20
2023-01-12T18:19:11.351Z,0.37
2023-01-12T18:21:41.773Z,0.30
2023-01-12T18:24:09.043Z,0.37
2023-01-12T18:26:36.346Z,0.20
2023-01-12T18:29:06.195Z,0.30
2023-01-12T18:31:38.006Z,0.20
2023-01-12T18:34:10.862Z,0.30
2023-01-12T18:36:41.073Z,0.30
2023-01-12T18:39:20.644Z,0.30
2023-01-12T18:42:08.640Z,0.30
2023-01-12T18:44:38.004Z,0.30
2023-01-12T18:47:24.037Z,0.20
2023-01-12T18:49:53.723Z,0.47
2023-01-12T18:52:39.234Z,0.30
2023-01-12T18:55:07.264Z,0.20
2023-01-12T18:57:35.103Z,0.30
2023-01-12T19:00:14.032Z,0.20
2023-01-12T19:02:41.819Z,0.20
2023-01-12T19:05:42.558Z,0.20
2023-01-12T19:08:30.394Z,0.17
2023-01-12T19:11:11.852Z,0.20
2023-01-12T19:13:58.287Z,0.40
2023-01-12T19:17:01.688Z,0.17
2023-01-12T19:19:35.502Z,0.30
2023-01-12T19:22:23.588Z,0.20
2023-01-12T19:25:15.001Z,0.20
2023-01-12T19:28:00.804Z,0.10
2023-01-12T19:30:36.419Z,0.23
2023-01-12T19:33:06.533Z,0.10
2023-01-12T19:35:33.659Z,0.10
2023-01-12T19:38:03.989Z,0.20
2023-01-12T19:40:43.973Z,0.17
2023-01-12T19:43:20.868Z,0.20
2023-01-12T19:45:58.950Z,0.20
2023-01-12T19:48:26.868Z,0.17
2023-01-12T19:50:54.983Z,0.20
2023-01-12T19:53:30.401Z,0.10
2023-01-12T19:55:57.566Z,0.03
2023-01-12T19:58:26.746Z,0.30
2023-01-12T20:00:55.944Z,0.27
2023-01-12T20:03:24.448Z,0.10
2023-01-12T20:05:53.011Z,0.37
2023-01-12T20:08:24.709Z,0.20
2023-01-12T20:11:01.993Z,0.20
2023-01-12T20:13:30.490Z,0.20
2023-01-12T20:15:57.958Z,0.10
2023-01-12T20:18:25.221Z,0.20
2023-01-12T20:20:58.587Z,0.20
2023-01-12T20:23:25.882Z,0.23
2023-01-12T20:25:53.167Z,0.20
2023-01-12T20:28:20.284Z,0.20
2023-01-12T20:30:47.645Z,0.20
2023-01-12T20:33:14.713Z,0.20
2023-01-12T20:35:47.998Z,0.20
2023-01-12T20:38:16.886Z,0.20
2023-01-12T20:40:53.406Z,0.20
2023-01-12T20:43:22.800Z,0.30
2023-01-12T20:45:50.115Z,0.27
2023-01-12T20:48:26.309Z,0.20
2023-01-12T20:50:55.123Z,0.10
2023-01-12T20:53:23.767Z,0.10
2023-01-12T20:55:51.678Z,0.40
2023-01-12T20:58:19.772Z,0.40
2023-01-12T21:00:50.291Z,0.30
2023-01-12T21:03:20.961Z,0.20
2023-01-12T21:05:48.886Z,0.40
2023-01-12T21:08:18.309Z,0.20
2023-01-12T21:10:52.215Z,0.40
2023-01-12T21:13:21.021Z,0.20
2023-01-12T21:15:48.103Z,0.33
2023-01-12T21:18:15.165Z,0.30
2023-01-12T21:20:43.614Z,0.40
2023-01-12T21:23:11.479Z,0.30
2023-01-12T21:25:46.418Z,0.20
2023-01-12T21:28:14.262Z,0.50
2023-01-12T21:30:41.449Z,0.60
2023-01-12T21:33:09.033Z,0.40
2023-01-12T21:35:36.961Z,0.30
2023-01-12T21:38:04.293Z,0.43
2023-01-12T21:40:35.360Z,0.30
2023-01-12T21:43:08.532Z,0.40
2023-01-12T21:45:45.594Z,0.40
2023-01-12T21:48:15.814Z,0.30
2023-01-12T21:50:43.838Z,0.47
2023-01-12T21:53:23.483Z,0.47
2023-01-12T21:55:57.748Z,0.50
2023-01-12T21:58:26.863Z,0.60
2023-01-12T22:00:55.201Z,0.40
2023-01-12T22:03:27.494Z,0.50
2023-01-12T22:05:55.576Z,0.63
2023-01-12T22:08:23.578Z,0.33
2023-01-12T22:10:50.570Z,0.30
2023-01-12T22:13:18.074Z,0.40
2023-01-12T22:15:48.297Z,0.47
2023-01-12T22:18:15.316Z,0.47
2023-01-12T22:20:42.740Z,0.20
2023-01-12T22:23:13.024Z,0.30
2023-01-12T22:25:40.324Z,0.30
2023-01-12T22:28:07.343Z,0.30
2023-01-12T22:30:34.330Z,1.00
2023-01-12T22:33:01.354Z,0.50
2023-01-12T22:35:28.360Z,0.63
2023-01-12T22:37:55.772Z,0.40
2023-01-12T22:40:23.039Z,0.47
2023-01-12T22:43:08.682Z,0.40
2023-01-12T22:45:38.147Z,0.30
2023-01-12T22:48:06.091Z,0.40
2023-01-12T22:50:33.511Z,0.40
2023-01-12T22:53:00.635Z,0.40
2023-01-12T22:55:27.813Z,0.50
2023-01-12T22:57:54.881Z,0.40
2023-01-12T23:00:22.389Z,0.40
2023-01-12T23:03:02.388Z,0.40
2023-01-12T23:05:55.934Z,0.50
2023-01-12T23:08:24.320Z,0.40
2023-01-12T23:10:52.161Z,0.30
2023-01-12T23:13:21.364Z,0.40
2023-01-12T23:15:56.755Z,0.50
2023-01-12T23:18:29.884Z,0.40
2023-01-12T23:21:26.483Z,0.50
2023-01-12T23:24:00.764Z,0.60
2023-01-12T23:26:32.699Z,0.40
2023-01-12T23:29:02.891Z,0.50
2023-01-12T23:31:33.570Z,0.30
2023-01-12T23:34:01.419Z,0.43
2023-01-12T23:36:31.008Z,0.20
2023-01-12T23:39:02.865Z,0.30
2023-01-12T23:41:33.995Z,0.40
2023-01-12T23:44:04.958Z,0.50
2023-01-12T23:46:40.230Z,0.47
2023-01-12T23:49:07.320Z,0.53
2023-01-12T23:51:36.246Z,0.40
2023-01-12T23:54:03.661Z,0.20
2023-01-12T23:56:33.215Z,0.53
2023-01-12T23:59:00.705Z,0.20
